sensor_id;sensor_type;location;lat;lon;timestamp;pressure;altitude;pressure_sealevel;temperature;humidity
12178;BME280;6152;48.728;9.256;2023-08-17T00:00:26;97223.50;;;19.44;100.00
12178;BME280;6152;48.728;9.256;2023-08-17T00:02:52;97237.25;;;19.47;100.00
12178;BME280;6152;48.728;9.256;2023-08-17T00:05:18;97233.19;;;19.53;100.00
12178;BME280;6152;48.728;9.256;2023-08-17T00:07:45;97227.47;;;19.57;100.00
12178;BME280;6152;48.728;9.256;2023-08-17T00:10:11;97231.50;;;19.61;100.00
12178;BME280;6152;48.728;9.256;2023-08-17T00:12:37;97227.56;;;19.65;100.00
12178;BME280;6152;48.728;9.256;2023-08-17T00:15:03;97229.47;;;19.73;100.00
12178;BME280;6152;48.728;9.256;2023-08-17T00:17:29;97223.75;;;19.78;100.00
12178;BME280;6152;48.728;9.256;2023-08-17T00:19:56;97219.44;;;19.77;100.00
12178;BME280;6152;48.728;9.256;2023-08-17T00:22:22;97220.00;;;19.80;100.00
12178;BME280;6152;48.728;9.256;2023-08-17T00:24:48;97215.41;;;19.82;100.00
12178;BME280;6152;48.728;9.256;2023-08-17T00:27:14;97214.41;;;19.83;100.00
12178;BME280;6152;48.728;9.256;2023-08-17T00:29:40;97220.75;;;19.90;100.00
12178;BME280;6152;48.728;9.256;2023-08-17T00:32:07;97222.97;;;19.95;100.00
12178;BME280;6152;48.728;9.256;2023-08-17T00:34:33;97217.94;;;20.01;100.00
12178;BME280;6152;48.728;9.256;2023-08-17T00:36:59;97221.22;;;20.03;100.00
12178;BME280;6152;48.728;9.256;2023-08-17T00:39:25;97218.47;;;20.05;100.00
12178;BME280;6152;48.728;9.256;2023-08-17T00:41:52;97205.13;;;20.06;100.00
12178;BME280;6152;48.728;9.256;2023-08-17T00:44:18;97207.28;;;20.11;100.00
12178;BME280;6152;48.728;9.256;2023-08-17T00:46:44;97207.28;;;20.11;100.00
12178;BME280;6152;48.728;9.256;2023-08-17T00:49:11;97208.97;;;20.12;100.00
12178;BME280;6152;48.728;9.256;2023-08-17T00:51:37;97203.97;;;20.09;100.00
12178;BME280;6152;48.728;9.256;2023-08-17T00:54:04;97202.31;;;20.08;100.00
12178;BME280;6152;48.728;9.256;2023-08-17T00:56:30;97205.91;;;20.07;100.00
12178;BME280;6152;48.728;9.256;2023-08-17T00:58:56;97208.41;;;20.08;100.00
12178;BME280;6152;48.728;9.256;2023-08-17T01:01:23;97206.44;;;20.10;100.00
12178;BME280;6152;48.728;9.256;2023-08-17T01:03:49;97205.16;;;20.14;100.00
12178;BME280;6152;48.728;9.256;2023-08-17T01:06:16;97200.06;;;20.13;100.00
12178;BME280;6152;48.728;9.256;2023-08-17T01:08:44;97200.31;;;20.10;100.00
12178;BME280;6152;48.728;9.256;2023-08-17T01:16:29;97195.00;;;20.20;100.00
12178;BME280;6152;48.728;9.256;2023-08-17T01:18:58;97193.31;;;20.18;100.00
12178;BME280;6152;48.728;9.256;2023-08-17T01:21:30;97186.16;;;20.11;100.00
12178;BME280;6152;48.728;9.256;2023-08-17T01:24:03;97197.03;;;20.08;100.00
12178;BME280;6152;48.728;9.256;2023-08-17T01:26:30;97191.91;;;20.06;100.00
12178;BME280;6152;48.728;9.256;2023-08-17T01:28:56;97186.75;;;20.05;100.00
12178;BME280;6152;48.728;9.256;2023-08-17T01:31:31;97183.97;;;20.06;100.00
12178;BME280;6152;48.728;9.256;2023-08-17T01:34:05;97189.41;;;20.05;100.00
12178;BME280;6152;48.728;9.256;2023-08-17T01:36:43;97183.72;;;20.00;100.00
12178;BME280;6152;48.728;9.256;2023-08-17T01:39:13;97182.06;;;19.99;100.00
12178;BME280;6152;48.728;9.256;2023-08-17T01:41:44;97180.41;;;19.98;100.00
12178;BME280;6152;48.728;9.256;2023-08-17T01:44:12;97183.34;;;19.95;100.00
12178;BME280;6152;48.728;9.256;2023-08-17T01:46:38;97175.72;;;19.92;100.00
12178;BME280;6152;48.728;9.256;2023-08-17T01:49:04;97179.03;;;19.94;100.00
12178;BME280;6152;48.728;9.256;2023-08-17T01:51:31;97176.81;;;19.89;100.00
12178;BME280;6152;48.728;9.256;2023-08-17T01:53:57;97173.38;;;19.89;100.00
12178;BME280;6152;48.728;9.256;2023-08-17T01:56:23;97181.59;;;19.86;100.00
12178;BME280;6152;48.728;9.256;2023-08-17T01:58:49;97190.50;;;19.85;100.00
12178;BME280;6152;48.728;9.256;2023-08-17T02:01:15;97182.03;;;19.81;100.00
12178;BME280;6152;48.728;9.256;2023-08-17T02:03:41;97184.38;;;19.84;100.00
12178;BME280;6152;48.728;9.256;2023-08-17T02:06:07;97181.50;;;19.78;100.00
12178;BME280;6152;48.728;9.256;2023-08-17T02:08:34;97179.47;;;19.72;100.00
12178;BME280;6152;48.728;9.256;2023-08-17T02:11:01;97181.41;;;19.70;100.00
12178;BME280;6152;48.728;9.256;2023-08-17T02:13:27;97170.31;;;19.66;100.00
12178;BME280;6152;48.728;9.256;2023-08-17T02:15:53;97174.06;;;19.63;100.00
12178;BME280;6152;48.728;9.256;2023-08-17T02:18:19;97167.00;;;19.64;100.00
12178;BME280;6152;48.728;9.256;2023-08-17T02:20:46;97176.03;;;19.61;100.00
12178;BME280;6152;48.728;9.256;2023-08-17T02:23:12;97167.00;;;19.64;100.00
12178;BME280;6152;48.728;9.256;2023-08-17T02:25:39;97170.31;;;19.66;100.00
12178;BME280;6152;48.728;9.256;2023-08-17T02:28:06;97173.09;;;19.64;100.00
12178;BME280;6152;48.728;9.256;2023-08-17T02:30:32;97159.19;;;19.62;100.00
12178;BME280;6152;48.728;9.256;2023-08-17T02:32:58;97164.19;;;19.65;100.00
12178;BME280;6152;48.728;9.256;2023-08-17T02:35:25;97155.28;;;19.66;100.00
12178;BME280;6152;48.728;9.256;2023-08-17T02:37:51;97156.97;;;19.67;100.00
12178;BME280;6152;48.728;9.256;2023-08-17T02:40:17;97151.69;;;19.67;100.00
12178;BME280;6152;48.728;9.256;2023-08-17T02:42:43;97155.59;;;19.63;100.00
12178;BME280;6152;48.728;9.256;2023-08-17T02:45:09;97151.97;;;19.64;100.00
12178;BME280;6152;48.728;9.256;2023-08-17T02:47:36;97155.59;;;19.63;100.00
12178;BME280;6152;48.728;9.256;2023-08-17T02:50:02;97152.94;;;19.63;100.00
12178;BME280;6152;48.728;9.256;2023-08-17T02:52:28;97153.91;;;19.62;100.00
12178;BME280;6152;48.728;9.256;2023-08-17T02:54:54;97141.19;;;19.58;100.00
12178;BME280;6152;48.728;9.256;2023-08-17T02:57:20;97139.50;;;19.57;100.00
12178;BME280;6152;48.728;9.256;2023-08-17T02:59:47;97140.06;;;19.60;100.00
12178;BME280;6152;48.728;9.256;2023-08-17T03:02:13;97146.31;;;19.59;100.00
12178;BME280;6152;48.728;9.256;2023-08-17T03:04:39;97142.00;;;19.58;100.00
12178;BME280;6152;48.728;9.256;2023-08-17T03:07:05;97127.81;;;19.59;100.00
12178;BME280;6152;48.728;9.256;2023-08-17T03:09:31;97130.16;;;19.62;100.00
12178;BME280;6152;48.728;9.256;2023-08-17T03:11:57;97133.63;;;19.63;100.00
12178;BME280;6152;48.728;9.256;2023-08-17T03:14:23;97125.56;;;19.64;100.00
12178;BME280;6152;48.728;9.256;2023-08-17T03:16:49;97127.22;;;19.65;100.00
12178;BME280;6152;48.728;9.256;2023-08-17T03:19:19;97127.91;;;19.67;100.00
12178;BME280;6152;48.728;9.256;2023-08-17T03:21:45;97117.34;;;19.67;100.00
12178;BME280;6152;48.728;9.256;2023-08-17T03:24:11;97115.53;;;19.68;100.00
12178;BME280;6152;48.728;9.256;2023-08-17T03:26:37;97115.38;;;19.70;100.00
12178;BME280;6152;48.728;9.256;2023-08-17T03:29:03;97116.09;;;19.72;100.00
12178;BME280;6152;48.728;9.256;2023-08-17T03:31:29;97118.41;;;19.75;100.00
12178;BME280;6152;48.728;9.256;2023-08-17T03:33:55;97114.94;;;19.74;100.00
12178;BME280;6152;48.728;9.256;2023-08-17T03:36:22;97110.50;;;19.75;100.00
12178;BME280;6152;48.728;9.256;2023-08-17T03:38:48;97112.44;;;19.73;100.00
12178;BME280;6152;48.728;9.256;2023-08-17T03:41:14;97115.78;;;19.75;100.00
12178;BME280;6152;48.728;9.256;2023-08-17T03:43:40;97110.50;;;19.75;100.00
12178;BME280;6152;48.728;9.256;2023-08-17T03:46:06;97114.09;;;19.74;100.00
12178;BME280;6152;48.728;9.256;2023-08-17T03:48:32;97121.91;;;19.75;100.00
12178;BME280;6152;48.728;9.256;2023-08-17T03:50:58;97122.69;;;19.76;100.00
12178;BME280;6152;48.728;9.256;2023-08-17T03:53:24;97126.66;;;19.72;100.00
12178;BME280;6152;48.728;9.256;2023-08-17T03:55:51;97128.06;;;19.66;100.00
12178;BME280;6152;48.728;9.256;2023-08-17T03:58:18;97128.66;;;19.60;100.00
12178;BME280;6152;48.728;9.256;2023-08-17T04:00:51;97142.69;;;19.60;100.00
12178;BME280;6152;48.728;9.256;2023-08-17T04:03:18;97140.06;;;19.60;100.00
12178;BME280;6152;48.728;9.256;2023-08-17T04:05:45;97145.31;;;19.60;100.00
12178;BME280;6152;48.728;9.256;2023-08-17T04:08:11;97135.97;;;19.66;100.00
12178;BME280;6152;48.728;9.256;2023-08-17T04:10:37;97140.16;;;19.69;100.00
12178;BME280;6152;48.728;9.256;2023-08-17T04:13:03;97135.44;;;19.62;100.00
12178;BME280;6152;48.728;9.256;2023-08-17T04:15:29;97146.00;;;19.62;100.00
12178;BME280;6152;48.728;9.256;2023-08-17T04:17:55;97142.69;;;19.60;100.00
12178;BME280;6152;48.728;9.256;2023-08-17T04:20:21;97141.72;;;19.61;100.00
12178;BME280;6152;48.728;9.256;2023-08-17T04:22:48;97141.03;;;19.59;100.00
12178;BME280;6152;48.728;9.256;2023-08-17T04:25:15;97148.09;;;19.59;100.00
12178;BME280;6152;48.728;9.256;2023-08-17T04:27:41;97155.06;;;19.60;100.00
12178;BME280;6152;48.728;9.256;2023-08-17T04:30:07;97153.09;;;19.62;100.00
12178;BME280;6152;48.728;9.256;2023-08-17T04:32:33;97152.13;;;19.63;100.00
12178;BME280;6152;48.728;9.256;2023-08-17T04:35:00;97159.91;;;19.64;100.00
12178;BME280;6152;48.728;9.256;2023-08-17T04:37:26;97165.03;;;19.66;100.00
12178;BME280;6152;48.728;9.256;2023-08-17T04:39:52;97164.88;;;19.67;100.00
12178;BME280;6152;48.728;9.256;2023-08-17T04:42:18;97167.00;;;19.64;100.00
12178;BME280;6152;48.728;9.256;2023-08-17T04:44:46;97161.16;;;19.60;100.00
12178;BME280;6152;48.728;9.256;2023-08-17T04:47:12;97160.88;;;19.63;100.00
12178;BME280;6152;48.728;9.256;2023-08-17T04:49:38;97159.19;;;19.62;100.00
12178;BME280;6152;48.728;9.256;2023-08-17T04:52:04;97159.91;;;19.64;100.00
12178;BME280;6152;48.728;9.256;2023-08-17T04:54:30;97168.66;;;19.65;100.00
12178;BME280;6152;48.728;9.256;2023-08-17T04:56:56;97167.81;;;19.64;100.00
12178;BME280;6152;48.728;9.256;2023-08-17T04:59:22;97174.06;;;19.63;100.00
12178;BME280;6152;48.728;9.256;2023-08-17T05:01:49;97167.81;;;19.64;100.00
12178;BME280;6152;48.728;9.256;2023-08-17T05:04:15;97174.47;;;19.69;100.00
12178;BME280;6152;48.728;9.256;2023-08-17T05:06:41;97172.75;;;19.77;100.00
12178;BME280;6152;48.728;9.256;2023-08-17T05:09:08;97178.56;;;19.81;100.00
12178;BME280;6152;48.728;9.256;2023-08-17T05:11:35;97180.53;;;19.79;100.00
12178;BME280;6152;48.728;9.256;2023-08-17T05:14:01;97177.19;;;19.77;100.00
12178;BME280;6152;48.728;9.256;2023-08-17T05:16:27;97177.59;;;19.82;100.00
12178;BME280;6152;48.728;9.256;2023-08-17T05:18:53;97182.41;;;19.86;100.00
12178;BME280;6152;48.728;9.256;2023-08-17T05:21:19;97179.34;;;19.91;100.00
12178;BME280;6152;48.728;9.256;2023-08-17T05:23:45;97186.00;;;19.95;100.00
12178;BME280;6152;48.728;9.256;2023-08-17T05:26:12;97183.72;;;20.00;100.00
12178;BME280;6152;48.728;9.256;2023-08-17T05:28:38;97176.84;;;20.07;100.00
12178;BME280;6152;48.728;9.256;2023-08-17T05:31:05;97180.72;;;20.12;100.00
12178;BME280;6152;48.728;9.256;2023-08-17T05:33:32;97178.44;;;20.17;100.00
12178;BME280;6152;48.728;9.256;2023-08-17T05:35:59;97176.84;;;20.25;100.00
12178;BME280;6152;48.728;9.256;2023-08-17T05:38:25;97178.13;;;20.30;100.00
12178;BME280;6152;48.728;9.256;2023-08-17T05:40:55;97184.38;;;20.29;100.00
12178;BME280;6152;48.728;9.256;2023-08-17T05:43:23;97178.91;;;20.31;100.00
12178;BME280;6152;48.728;9.256;2023-08-17T05:45:49;97184.47;;;20.37;100.00
12178;BME280;6152;48.728;9.256;2023-08-17T05:48:17;97184.50;;;20.45;100.00
12178;BME280;6152;48.728;9.256;2023-08-17T05:50:43;97177.28;;;20.47;100.00
12178;BME280;6152;48.728;9.256;2023-08-17T05:53:09;97172.28;;;20.44;100.00
12178;BME280;6152;48.728;9.256;2023-08-17T05:55:35;97174.69;;;20.55;100.00
12178;BME280;6152;48.728;9.256;2023-08-17T05:58:02;97184.34;;;20.64;100.00
12178;BME280;6152;48.728;9.256;2023-08-17T06:00:29;97179.53;;;20.60;100.00
12178;BME280;6152;48.728;9.256;2023-08-17T06:02:56;97193.28;;;20.63;100.00
12178;BME280;6152;48.728;9.256;2023-08-17T06:05:27;97190.69;;;20.72;100.00
12178;BME280;6152;48.728;9.256;2023-08-17T06:07:55;97194.91;;;20.82;100.00
12178;BME280;6152;48.728;9.256;2023-08-17T06:10:22;97198.34;;;20.83;100.00
12178;BME280;6152;48.728;9.256;2023-08-17T06:12:52;97197.47;;;20.92;100.00
12178;BME280;6152;48.728;9.256;2023-08-17T06:15:18;97200.09;;;20.92;100.00
12178;BME280;6152;48.728;9.256;2023-08-17T06:17:45;97194.31;;;20.96;100.00
12178;BME280;6152;48.728;9.256;2023-08-17T06:20:11;97202.97;;;20.98;100.00
12178;BME280;6152;48.728;9.256;2023-08-17T06:22:38;97197.50;;;21.00;100.00
12178;BME280;6152;48.728;9.256;2023-08-17T06:25:05;97194.94;;;20.90;100.00
12178;BME280;6152;48.728;9.256;2023-08-17T06:27:32;97201.16;;;20.99;100.00
12178;BME280;6152;48.728;9.256;2023-08-17T06:29:58;97196.19;;;21.04;100.00
12178;BME280;6152;48.728;9.256;2023-08-17T06:32:24;97200.44;;;21.14;100.00
12178;BME280;6152;48.728;9.256;2023-08-17T06:34:50;97203.47;;;21.28;100.00
12178;BME280;6152;48.728;9.256;2023-08-17T06:37:16;97198.38;;;21.34;100.00
12178;BME280;6152;48.728;9.256;2023-08-17T06:39:42;97201.59;;;21.46;100.00
12178;BME280;6152;48.728;9.256;2023-08-17T06:42:08;97199.19;;;21.60;100.00
12178;BME280;6152;48.728;9.256;2023-08-17T06:44:34;97200.31;;;21.50;100.00
12178;BME280;6152;48.728;9.256;2023-08-17T06:47:00;97198.63;;;21.49;100.00
12178;BME280;6152;48.728;9.256;2023-08-17T06:49:27;97202.50;;;21.62;100.00
12178;BME280;6152;48.728;9.256;2023-08-17T06:51:53;97197.66;;;21.50;100.00
12178;BME280;6152;48.728;9.256;2023-08-17T06:54:19;97203.53;;;21.70;100.00
12178;BME280;6152;48.728;9.256;2023-08-17T06:56:46;97199.19;;;21.60;100.00
12178;BME280;6152;48.728;9.256;2023-08-17T06:59:12;97201.53;;;21.30;100.00
12178;BME280;6152;48.728;9.256;2023-08-17T07:01:38;97209.94;;;21.25;100.00
12178;BME280;6152;48.728;9.256;2023-08-17T07:04:04;97204.31;;;21.28;100.00
12178;BME280;6152;48.728;9.256;2023-08-17T07:06:30;97203.47;;;21.28;100.00
12178;BME280;6152;48.728;9.256;2023-08-17T07:08:57;97205.72;;;21.40;100.00
12178;BME280;6152;48.728;9.256;2023-08-17T07:11:23;97213.03;;;21.46;100.00
12178;BME280;6152;48.728;9.256;2023-08-17T07:13:49;97202.06;;;21.75;100.00
12178;BME280;6152;48.728;9.256;2023-08-17T07:16:15;97213.25;;;21.95;100.00
12178;BME280;6152;48.728;9.256;2023-08-17T07:18:41;97217.91;;;22.01;100.00
12178;BME280;6152;48.728;9.256;2023-08-17T07:21:07;97214.66;;;22.15;100.00
12178;BME280;6152;48.728;9.256;2023-08-17T07:23:33;97209.06;;;22.42;100.00
12178;BME280;6152;48.728;9.256;2023-08-17T07:25:59;97211.59;;;22.68;100.00
12178;BME280;6152;48.728;9.256;2023-08-17T07:28:26;97215.91;;;22.77;100.00
12178;BME280;6152;48.728;9.256;2023-08-17T07:30:52;97215.06;;;22.77;100.00
12178;BME280;6152;48.728;9.256;2023-08-17T07:33:18;97211.78;;;22.75;100.00
12178;BME280;6152;48.728;9.256;2023-08-17T07:35:44;97211.72;;;23.07;100.00
12178;BME280;6152;48.728;9.256;2023-08-17T07:38:10;97215.38;;;23.14;100.00
12178;BME280;6152;48.728;9.256;2023-08-17T07:40:37;97208.69;;;23.34;100.00
12178;BME280;6152;48.728;9.256;2023-08-17T07:43:03;97216.63;;;23.58;100.00
12178;BME280;6152;48.728;9.256;2023-08-17T07:45:29;97221.53;;;23.78;100.00
12178;BME280;6152;48.728;9.256;2023-08-17T07:47:55;97217.50;;;23.90;100.00
12178;BME280;6152;48.728;9.256;2023-08-17T07:50:22;97217.13;;;23.93;100.00
12178;BME280;6152;48.728;9.256;2023-08-17T07:52:48;97217.72;;;24.11;100.00
12178;BME280;6152;48.728;9.256;2023-08-17T07:55:14;97207.63;;;24.37;100.00
12178;BME280;6152;48.728;9.256;2023-08-17T07:57:40;97206.91;;;24.43;100.00
12178;BME280;6152;48.728;9.256;2023-08-17T08:00:06;97198.66;;;24.84;100.00
12178;BME280;6152;48.728;9.256;2023-08-17T08:02:33;97197.88;;;25.12;100.00
12178;BME280;6152;48.728;9.256;2023-08-17T08:04:59;97200.16;;;25.01;100.00
12178;BME280;6152;48.728;9.256;2023-08-17T08:07:25;97193.31;;;24.84;100.00
12178;BME280;6152;48.728;9.256;2023-08-17T08:09:51;97198.63;;;24.38;100.00
12178;BME280;6152;48.728;9.256;2023-08-17T08:12:17;97201.88;;;24.48;100.00
12178;BME280;6152;48.728;9.256;2023-08-17T08:14:43;97196.72;;;24.70;100.00
12178;BME280;6152;48.728;9.256;2023-08-17T08:17:10;97192.66;;;24.82;100.00
12178;BME280;6152;48.728;9.256;2023-08-17T08:19:36;97195.81;;;24.85;100.00
12178;BME280;6152;48.728;9.256;2023-08-17T08:22:02;97201.81;;;25.02;100.00
12178;BME280;6152;48.728;9.256;2023-08-17T08:24:28;97202.56;;;24.96;100.00
12178;BME280;6152;48.728;9.256;2023-08-17T08:26:59;97200.16;;;25.01;100.00
12178;BME280;6152;48.728;9.256;2023-08-17T08:29:26;97194.81;;;25.01;100.00
12178;BME280;6152;48.728;9.256;2023-08-17T08:31:53;97199.56;;;25.43;100.00
12178;BME280;6152;48.728;9.256;2023-08-17T08:34:19;97198.00;;;25.92;100.00
12178;BME280;6152;48.728;9.256;2023-08-17T08:36:45;97190.81;;;26.43;100.00
12178;BME280;6152;48.728;9.256;2023-08-17T08:39:11;97185.72;;;26.91;100.00
12178;BME280;6152;48.728;9.256;2023-08-17T08:41:39;97189.88;;;28.50;100.00
12178;BME280;6152;48.728;9.256;2023-08-17T08:44:05;97193.06;;;30.03;100.00
12178;BME280;6152;48.728;9.256;2023-08-17T08:46:33;97192.72;;;30.31;98.20
12178;BME280;6152;48.728;9.256;2023-08-17T08:48:59;97192.91;;;30.74;90.81
12178;BME280;6152;48.728;9.256;2023-08-17T08:51:28;97193.28;;;31.09;87.93
12178;BME280;6152;48.728;9.256;2023-08-17T08:54:01;97195.84;;;31.47;85.27
12178;BME280;6152;48.728;9.256;2023-08-17T08:56:35;97194.16;;;32.07;80.87
12178;BME280;6152;48.728;9.256;2023-08-17T08:59:02;97200.44;;;32.01;78.06
12178;BME280;6152;48.728;9.256;2023-08-17T09:01:31;97188.63;;;31.84;76.91
12178;BME280;6152;48.728;9.256;2023-08-17T09:04:01;97185.91;;;33.33;68.71
12178;BME280;6152;48.728;9.256;2023-08-17T09:06:29;97175.56;;;34.73;59.98
12178;BME280;6152;48.728;9.256;2023-08-17T09:08:58;97182.84;;;36.11;52.92
12178;BME280;6152;48.728;9.256;2023-08-17T09:11:24;97180.50;;;37.26;47.01
12178;BME280;6152;48.728;9.256;2023-08-17T09:13:52;97171.28;;;38.31;43.47
12178;BME280;6152;48.728;9.256;2023-08-17T09:16:18;97177.41;;;34.27;51.45
12178;BME280;6152;48.728;9.256;2023-08-17T09:18:44;97169.91;;;35.58;48.99
12178;BME280;6152;48.728;9.256;2023-08-17T09:21:21;97164.75;;;36.65;47.24
12178;BME280;6152;48.728;9.256;2023-08-17T09:23:55;97160.47;;;37.84;42.84
12178;BME280;6152;48.728;9.256;2023-08-17T09:26:22;97165.44;;;37.09;41.68
12178;BME280;6152;48.728;9.256;2023-08-17T09:28:51;97173.44;;;38.19;40.15
12178;BME280;6152;48.728;9.256;2023-08-17T09:31:24;97160.53;;;38.97;39.82
12178;BME280;6152;48.728;9.256;2023-08-17T09:33:51;97160.53;;;39.02;38.02
12178;BME280;6152;48.728;9.256;2023-08-17T09:36:21;97170.63;;;39.12;37.14
12178;BME280;6152;48.728;9.256;2023-08-17T09:38:49;97161.50;;;39.87;36.52
12178;BME280;6152;48.728;9.256;2023-08-17T09:41:17;97158.19;;;40.59;35.40
12178;BME280;6152;48.728;9.256;2023-08-17T09:43:43;97154.91;;;41.01;35.13
12178;BME280;6152;48.728;9.256;2023-08-17T09:46:09;97153.00;;;40.53;35.17
12178;BME280;6152;48.728;9.256;2023-08-17T09:48:36;97156.47;;;41.36;34.52
12178;BME280;6152;48.728;9.256;2023-08-17T09:51:03;97156.28;;;40.99;34.18
12178;BME280;6152;48.728;9.256;2023-08-17T09:53:35;97152.75;;;41.27;33.57
12178;BME280;6152;48.728;9.256;2023-08-17T09:56:05;97146.38;;;39.41;35.66
12178;BME280;6152;48.728;9.256;2023-08-17T09:58:37;97140.91;;;38.65;38.00
12178;BME280;6152;48.728;9.256;2023-08-17T10:01:04;97138.22;;;39.00;37.88
12178;BME280;6152;48.728;9.256;2023-08-17T10:03:33;97139.31;;;38.94;37.78
12178;BME280;6152;48.728;9.256;2023-08-17T10:06:09;97144.47;;;38.75;37.29
12178;BME280;6152;48.728;9.256;2023-08-17T10:08:43;97143.16;;;38.01;38.62
12178;BME280;6152;48.728;9.256;2023-08-17T10:11:12;97143.66;;;38.95;36.95
12178;BME280;6152;48.728;9.256;2023-08-17T10:13:52;97143.88;;;40.33;34.72
12178;BME280;6152;48.728;9.256;2023-08-17T10:16:33;97146.13;;;41.33;33.39
12178;BME280;6152;48.728;9.256;2023-08-17T10:22:16;97135.38;;;39.81;34.34
12178;BME280;6152;48.728;9.256;2023-08-17T10:24:43;97129.94;;;38.34;36.99
12178;BME280;6152;48.728;9.256;2023-08-17T10:27:11;97132.19;;;38.68;37.81
12178;BME280;6152;48.728;9.256;2023-08-17T10:29:39;97141.03;;;38.03;37.59
12178;BME280;6152;48.728;9.256;2023-08-17T10:32:06;97123.66;;;36.83;40.83
12178;BME280;6152;48.728;9.256;2023-08-17T10:34:34;97123.47;;;37.31;40.49
12178;BME280;6152;48.728;9.256;2023-08-17T10:37:01;97124.22;;;36.85;41.30
12178;BME280;6152;48.728;9.256;2023-08-17T10:39:28;97123.97;;;38.32;38.73
12178;BME280;6152;48.728;9.256;2023-08-17T10:41:56;97129.41;;;39.69;35.96
12178;BME280;6152;48.728;9.256;2023-08-17T10:44:38;97128.56;;;41.10;34.43
12178;BME280;6152;48.728;9.256;2023-08-17T10:47:22;97122.50;;;41.18;33.68
12178;BME280;6152;48.728;9.256;2023-08-17T10:50:22;97125.63;;;40.24;34.36
12178;BME280;6152;48.728;9.256;2023-08-17T10:52:49;97117.75;;;40.17;34.48
12178;BME280;6152;48.728;9.256;2023-08-17T10:55:16;97120.06;;;41.46;33.04
12178;BME280;6152;48.728;9.256;2023-08-17T10:57:43;97122.13;;;42.44;31.47
12178;BME280;6152;48.728;9.256;2023-08-17T11:00:22;97124.28;;;42.47;29.74
12178;BME280;6152;48.728;9.256;2023-08-17T11:03:09;97112.53;;;42.65;29.91
12178;BME280;6152;48.728;9.256;2023-08-17T11:05:54;97111.50;;;42.23;30.15
12178;BME280;6152;48.728;9.256;2023-08-17T11:08:50;97102.63;;;43.01;29.00
12178;BME280;6152;48.728;9.256;2023-08-17T11:11:20;97104.41;;;42.92;28.83
12178;BME280;6152;48.728;9.256;2023-08-17T11:13:46;97102.75;;;43.10;27.53
12178;BME280;6152;48.728;9.256;2023-08-17T11:16:15;97095.06;;;43.39;27.80
12178;BME280;6152;48.728;9.256;2023-08-17T11:18:43;97100.91;;;44.42;26.12
12178;BME280;6152;48.728;9.256;2023-08-17T11:21:10;97099.06;;;44.01;26.05
12178;BME280;6152;48.728;9.256;2023-08-17T11:23:37;97099.47;;;44.58;26.64
12178;BME280;6152;48.728;9.256;2023-08-17T11:26:03;97093.19;;;43.07;27.35
12178;BME280;6152;48.728;9.256;2023-08-17T11:28:31;97092.88;;;42.76;27.77
12178;BME280;6152;48.728;9.256;2023-08-17T11:31:09;97084.81;;;42.85;26.99
12178;BME280;6152;48.728;9.256;2023-08-17T11:33:36;97091.19;;;42.24;27.87
12178;BME280;6152;48.728;9.256;2023-08-17T11:36:04;97082.13;;;42.80;28.21
12178;BME280;6152;48.728;9.256;2023-08-17T11:38:38;97080.00;;;43.09;26.64
12178;BME280;6152;48.728;9.256;2023-08-17T11:41:06;97080.66;;;43.34;27.37
12178;BME280;6152;48.728;9.256;2023-08-17T11:43:35;97078.41;;;43.22;28.22
12178;BME280;6152;48.728;9.256;2023-08-17T11:46:02;97079.25;;;43.91;27.57
12178;BME280;6152;48.728;9.256;2023-08-17T11:48:29;97080.84;;;44.19;27.31
12178;BME280;6152;48.728;9.256;2023-08-17T11:50:56;97083.19;;;44.48;27.44
12178;BME280;6152;48.728;9.256;2023-08-17T11:53:22;97081.59;;;44.69;26.95
12178;BME280;6152;48.728;9.256;2023-08-17T11:55:49;97081.91;;;44.32;27.28
12178;BME280;6152;48.728;9.256;2023-08-17T11:58:15;97077.50;;;42.94;28.33
12178;BME280;6152;48.728;9.256;2023-08-17T12:00:43;97082.56;;;41.51;29.82
12178;BME280;6152;48.728;9.256;2023-08-17T12:03:15;97087.53;;;39.19;32.16
12178;BME280;6152;48.728;9.256;2023-08-17T12:05:43;97098.91;;;38.20;34.30
12178;BME280;6152;48.728;9.256;2023-08-17T12:08:10;97092.19;;;36.82;36.74
12178;BME280;6152;48.728;9.256;2023-08-17T12:10:37;97099.38;;;36.39;38.58
12178;BME280;6152;48.728;9.256;2023-08-17T12:13:04;97110.34;;;35.79;41.75
12178;BME280;6152;48.728;9.256;2023-08-17T12:15:34;97103.16;;;34.30;46.66
12178;BME280;6152;48.728;9.256;2023-08-17T12:18:03;97114.06;;;33.32;53.44
12178;BME280;6152;48.728;9.256;2023-08-17T12:20:30;97101.50;;;32.91;56.56
12178;BME280;6152;48.728;9.256;2023-08-17T12:22:58;97107.56;;;32.03;65.29
12178;BME280;6152;48.728;9.256;2023-08-17T12:25:25;97101.59;;;31.72;69.04
12178;BME280;6152;48.728;9.256;2023-08-17T12:27:52;97102.81;;;30.90;75.74
12178;BME280;6152;48.728;9.256;2023-08-17T12:32:52;97099.09;;;30.35;84.10
12178;BME280;6152;48.728;9.256;2023-08-17T12:35:18;97096.13;;;30.18;85.77
12178;BME280;6152;48.728;9.256;2023-08-17T12:37:47;97102.59;;;29.59;88.51
12178;BME280;6152;48.728;9.256;2023-08-17T12:40:13;97103.69;;;29.45;91.78
12178;BME280;6152;48.728;9.256;2023-08-17T12:42:40;97100.84;;;29.27;92.99
12178;BME280;6152;48.728;9.256;2023-08-17T12:45:06;97102.50;;;29.15;95.73
12178;BME280;6152;48.728;9.256;2023-08-17T12:47:32;97107.09;;;28.82;100.00
12178;BME280;6152;48.728;9.256;2023-08-17T12:49:58;97105.44;;;28.81;100.00
12178;BME280;6152;48.728;9.256;2023-08-17T12:52:27;97114.50;;;28.67;100.00
12178;BME280;6152;48.728;9.256;2023-08-17T12:54:53;97122.69;;;28.58;100.00
12178;BME280;6152;48.728;9.256;2023-08-17T12:57:20;97139.56;;;28.26;100.00
12178;BME280;6152;48.728;9.256;2023-08-17T12:59:46;97136.00;;;28.06;100.00
12178;BME280;6152;48.728;9.256;2023-08-17T13:02:12;97132.31;;;28.14;100.00
12178;BME280;6152;48.728;9.256;2023-08-17T13:04:39;97131.19;;;27.82;100.00
12178;BME280;6152;48.728;9.256;2023-08-17T13:07:05;97127.44;;;27.70;100.00
12178;BME280;6152;48.728;9.256;2023-08-17T13:09:31;97139.72;;;27.57;100.00
12178;BME280;6152;48.728;9.256;2023-08-17T13:11:57;97159.06;;;27.59;100.00
12178;BME280;6152;48.728;9.256;2023-08-17T13:14:23;97170.84;;;27.37;100.00